createdAt,value
2022-11-29T00:00:44.685Z,97593.38
2022-11-29T00:03:11.429Z,97595.38
2022-11-29T00:05:38.133Z,97594.81
2022-11-29T00:08:04.774Z,97595.06
2022-11-29T00:10:31.377Z,97594.44
2022-11-29T00:12:58.037Z,97587.84
2022-11-29T00:15:24.648Z,97591.75
2022-11-29T00:17:51.236Z,97589.31
2022-11-29T00:20:17.897Z,97594.22
2022-11-29T00:22:44.628Z,97596.63
2022-11-29T00:25:11.227Z,97592.47
2022-11-29T00:27:37.882Z,97580.16
2022-11-29T00:30:04.554Z,97592.78
2022-11-29T00:32:31.164Z,97593.16
2022-11-29T00:34:59.640Z,97581.75
2022-11-29T00:37:26.603Z,97596.69
2022-11-29T00:39:53.279Z,97587.91
2022-11-29T00:42:19.920Z,97586.78
2022-11-29T00:44:46.568Z,97585.00
2022-11-29T00:47:13.251Z,97585.84
2022-11-29T00:49:39.929Z,97582.81
2022-11-29T00:52:06.573Z,97586.78
2022-11-29T00:54:33.185Z,97584.09
2022-11-29T00:56:59.803Z,97585.28
2022-11-29T00:59:26.388Z,97585.94
2022-11-29T01:01:53.044Z,97583.50
2022-11-29T01:04:19.686Z,97583.19
2022-11-29T01:06:46.309Z,97587.28
2022-11-29T01:09:12.939Z,97580.69
2022-11-29T01:11:39.608Z,97582.88
2022-11-29T01:14:06.220Z,97585.00
2022-11-29T01:16:32.917Z,97583.81
2022-11-29T01:18:59.634Z,97584.94
2022-11-29T01:21:26.246Z,97582.34
2022-11-29T01:23:52.897Z,97582.38
2022-11-29T01:26:19.524Z,97588.66
2022-11-29T01:28:46.158Z,97587.34
2022-11-29T01:31:12.818Z,97582.19
2022-11-29T01:33:39.413Z,97583.91
2022-11-29T01:36:06.073Z,97583.19
2022-11-29T01:38:32.659Z,97592.56
2022-11-29T01:40:59.233Z,97583.78
2022-11-29T01:43:25.887Z,97589.81
2022-11-29T01:45:52.528Z,97580.63
2022-11-29T01:48:19.173Z,97578.47
2022-11-29T01:50:45.818Z,97578.56
2022-11-29T01:53:12.464Z,97582.03
2022-11-29T01:55:39.149Z,97577.75
2022-11-29T01:58:06.064Z,97578.38
2022-11-29T02:00:32.692Z,97580.22
2022-11-29T02:02:59.306Z,97584.22
2022-11-29T02:05:25.936Z,97584.06
2022-11-29T02:07:52.561Z,97587.75
2022-11-29T02:10:19.276Z,97590.22
2022-11-29T02:12:45.873Z,97585.66
2022-11-29T02:15:12.504Z,97589.31
2022-11-29T02:17:39.159Z,97592.22
2022-11-29T02:20:06.391Z,97576.84
2022-11-29T02:22:32.997Z,97580.84
2022-11-29T02:24:59.666Z,97577.59
2022-11-29T02:27:26.280Z,97580.88
2022-11-29T02:29:52.935Z,97575.03
2022-11-29T02:32:19.622Z,97585.63
2022-11-29T02:34:46.434Z,97582.53
2022-11-29T02:37:13.333Z,97581.66
2022-11-29T02:39:39.988Z,97582.78
2022-11-29T02:42:06.645Z,97587.81
2022-11-29T02:44:33.270Z,97591.28
2022-11-29T02:46:59.856Z,97588.56
2022-11-29T02:49:26.480Z,97588.22
2022-11-29T02:51:53.101Z,97586.66
2022-11-29T02:54:19.769Z,97582.81
2022-11-29T02:56:46.424Z,97593.25
2022-11-29T02:59:13.041Z,97594.06
2022-11-29T03:01:39.743Z,97594.19
2022-11-29T03:04:06.356Z,97589.22
2022-11-29T03:06:33.073Z,97594.97
2022-11-29T03:08:59.740Z,97596.19
2022-11-29T03:11:26.392Z,97593.69
2022-11-29T03:13:53.012Z,97597.50
2022-11-29T03:16:19.601Z,97603.59
2022-11-29T03:18:46.215Z,97597.22
2022-11-29T03:21:12.941Z,97595.44
2022-11-29T03:23:39.603Z,97597.78
2022-11-29T03:26:06.260Z,97599.25
2022-11-29T03:28:32.869Z,97603.34
2022-11-29T03:30:59.532Z,97604.91
2022-11-29T03:33:26.164Z,97607.19
2022-11-29T03:35:52.778Z,97606.63
2022-11-29T03:38:19.380Z,97611.34
2022-11-29T03:40:45.963Z,97608.06
2022-11-29T03:43:12.572Z,97619.00
2022-11-29T03:45:39.196Z,97616.34
2022-11-29T03:48:05.810Z,97619.44
2022-11-29T03:50:32.442Z,97614.91
2022-11-29T03:52:59.117Z,97615.75
2022-11-29T03:55:25.779Z,97618.06
2022-11-29T03:57:52.427Z,97625.69
2022-11-29T04:00:19.092Z,97621.50
2022-11-29T04:02:45.723Z,97624.69
2022-11-29T04:05:12.430Z,97627.63
2022-11-29T04:07:39.111Z,97627.47
2022-11-29T04:10:05.805Z,97631.13
2022-11-29T04:12:32.417Z,97627.88
2022-11-29T04:14:59.054Z,97630.25
2022-11-29T04:17:25.737Z,97631.03
2022-11-29T04:19:52.381Z,97630.41
2022-11-29T04:22:18.996Z,97636.19
2022-11-29T04:24:45.914Z,97641.56
2022-11-29T04:27:12.698Z,97634.06
2022-11-29T04:29:39.308Z,97644.13
2022-11-29T04:32:05.969Z,97638.63
2022-11-29T04:34:32.577Z,97646.19
2022-11-29T04:36:59.233Z,97635.81
2022-11-29T04:39:25.877Z,97642.53
2022-11-29T04:41:52.508Z,97649.34
2022-11-29T04:44:19.146Z,97650.16
2022-11-29T04:46:45.849Z,97656.63
2022-11-29T04:49:12.517Z,97654.88
2022-11-29T04:51:39.133Z,97649.84
2022-11-29T04:54:05.821Z,97655.75
2022-11-29T04:56:32.462Z,97658.09
2022-11-29T04:58:59.111Z,97662.97
2022-11-29T05:01:25.747Z,97661.97
2022-11-29T05:03:56.903Z,97657.63
2022-11-29T05:06:23.904Z,97654.75
2022-11-29T05:08:50.533Z,97654.56
2022-11-29T05:11:20.831Z,97660.09
2022-11-29T05:13:50.115Z,97662.78
2022-11-29T05:16:16.831Z,97668.59
2022-11-29T05:18:43.524Z,97664.78
2022-11-29T05:21:10.150Z,97668.44
2022-11-29T05:23:36.730Z,97666.84
2022-11-29T05:26:03.406Z,97663.59
2022-11-29T05:28:30.106Z,97658.22
2022-11-29T05:30:56.761Z,97663.63
2022-11-29T05:33:23.418Z,97659.97
2022-11-29T05:35:50.077Z,97660.19
2022-11-29T05:38:16.721Z,97676.94
2022-11-29T05:40:43.408Z,97672.13
2022-11-29T05:43:10.058Z,97674.19
2022-11-29T05:45:37.055Z,97678.63
2022-11-29T05:48:04.071Z,97670.84
2022-11-29T05:50:30.722Z,97670.56
2022-11-29T05:52:57.345Z,97672.72
2022-11-29T05:55:23.949Z,97674.03
2022-11-29T05:57:50.544Z,97674.22
2022-11-29T06:00:17.213Z,97678.78
2022-11-29T06:02:43.885Z,97680.47
2022-11-29T06:05:10.576Z,97679.94
2022-11-29T06:07:37.238Z,97684.16
2022-11-29T06:10:03.960Z,97682.56
2022-11-29T06:12:30.710Z,97686.56
2022-11-29T06:14:57.337Z,97684.47
2022-11-29T06:17:24.150Z,97690.91
2022-11-29T06:22:34.948Z,97695.63
2022-11-29T06:25:01.582Z,97692.50
2022-11-29T06:27:28.266Z,97698.28
2022-11-29T06:29:54.877Z,97696.31
2022-11-29T06:32:21.514Z,97684.91
2022-11-29T06:34:48.467Z,97692.63
2022-11-29T06:37:15.250Z,97687.22
2022-11-29T06:39:41.889Z,97688.44
2022-11-29T06:42:08.538Z,97685.50
2022-11-29T06:44:35.193Z,97695.34
2022-11-29T06:47:01.840Z,97691.25
2022-11-29T06:49:28.537Z,97689.28
2022-11-29T06:51:55.125Z,97692.75
2022-11-29T06:54:21.722Z,97698.16
2022-11-29T06:56:48.346Z,97708.97
2022-11-29T06:59:14.985Z,97706.19
2022-11-29T07:01:41.751Z,97713.34
2022-11-29T07:04:08.434Z,97707.69
2022-11-29T07:06:35.079Z,97713.31
2022-11-29T07:09:01.726Z,97709.16
2022-11-29T07:11:28.374Z,97710.81
2022-11-29T07:13:55.026Z,97712.19
2022-11-29T07:16:21.748Z,97717.41
2022-11-29T07:18:48.457Z,97715.44
2022-11-29T07:21:15.048Z,97726.91
2022-11-29T07:23:41.697Z,97727.88
2022-11-29T07:26:08.337Z,97722.63
2022-11-29T07:28:35.589Z,97723.19
2022-11-29T07:31:02.789Z,97724.50
2022-11-29T07:33:30.113Z,97729.38
2022-11-29T07:35:57.567Z,97724.63
2022-11-29T07:38:24.457Z,97722.00
2022-11-29T07:40:51.706Z,97725.91
2022-11-29T07:43:18.971Z,97722.47
2022-11-29T07:45:45.946Z,97731.03
2022-11-29T07:48:12.620Z,97733.50
2022-11-29T07:50:39.823Z,97735.00
2022-11-29T07:53:06.628Z,97735.00
2022-11-29T07:55:33.703Z,97732.09
2022-11-29T07:58:00.398Z,97734.69
2022-11-29T08:00:27.184Z,97736.69
2022-11-29T08:02:53.987Z,97731.78
2022-11-29T08:05:20.711Z,97725.22
2022-11-29T08:07:48.111Z,97730.00
2022-11-29T08:10:14.869Z,97730.81
2022-11-29T08:12:41.924Z,97730.63
2022-11-29T08:15:09.081Z,97738.66
2022-11-29T08:17:35.995Z,97735.53
2022-11-29T08:20:04.479Z,97746.03
2022-11-29T08:22:31.484Z,97739.47
2022-11-29T08:24:58.758Z,97741.22
2022-11-29T08:27:25.584Z,97741.06
2022-11-29T08:29:52.486Z,97737.94
2022-11-29T08:32:19.924Z,97748.94
2022-11-29T08:34:46.939Z,97736.81
2022-11-29T08:37:13.733Z,97738.63
2022-11-29T08:39:40.441Z,97742.25
2022-11-29T08:42:07.049Z,97745.88
2022-11-29T08:44:33.710Z,97745.72
2022-11-29T08:47:00.313Z,97751.28
2022-11-29T08:49:26.953Z,97752.59
2022-11-29T08:51:53.580Z,97747.34
2022-11-29T08:54:20.220Z,97754.41
2022-11-29T08:59:33.484Z,97759.09
2022-11-29T09:02:00.216Z,97763.53
2022-11-29T09:04:26.916Z,97756.28
2022-11-29T09:06:53.557Z,97762.31
2022-11-29T09:09:20.205Z,97761.31
2022-11-29T09:11:49.439Z,97764.97
2022-11-29T09:14:16.353Z,97762.91
2022-11-29T09:16:42.996Z,97767.31
2022-11-29T09:19:09.691Z,97766.75
2022-11-29T09:21:36.317Z,97760.94
2022-11-29T09:24:02.960Z,97763.75
2022-11-29T09:26:29.545Z,97763.81
2022-11-29T09:28:56.223Z,97765.69
2022-11-29T09:31:22.937Z,97759.34
2022-11-29T09:33:49.606Z,97758.75
2022-11-29T09:36:16.237Z,97762.22
2022-11-29T09:38:42.930Z,97764.53
2022-11-29T09:41:09.536Z,97762.56
2022-11-29T09:43:36.176Z,97759.47
2022-11-29T09:46:02.813Z,97761.44
2022-11-29T09:48:29.452Z,97765.84
2022-11-29T09:50:56.052Z,97752.91
2022-11-29T09:53:22.655Z,97754.56
2022-11-29T09:55:49.311Z,97755.53
2022-11-29T09:58:15.958Z,97749.00
2022-11-29T10:00:42.563Z,97752.56
2022-11-29T10:03:09.176Z,97744.72
2022-11-29T10:05:35.823Z,97737.03
2022-11-29T10:08:10.945Z,97736.19
2022-11-29T10:10:37.590Z,97739.31
2022-11-29T10:13:04.228Z,97733.72
2022-11-29T10:15:30.897Z,97729.66
2022-11-29T10:17:57.555Z,97731.91
2022-11-29T10:20:24.181Z,97726.84
2022-11-29T10:22:50.824Z,97727.34
2022-11-29T10:25:17.464Z,97724.72
2022-11-29T10:27:44.158Z,97720.66
2022-11-29T10:30:10.855Z,97716.88
2022-11-29T10:32:37.548Z,97717.31
2022-11-29T10:35:04.194Z,97717.88
2022-11-29T10:37:30.812Z,97722.13
2022-11-29T10:39:57.405Z,97716.88
2022-11-29T10:42:24.075Z,97718.34
2022-11-29T10:44:50.697Z,97713.25
2022-11-29T10:47:17.307Z,97718.50
2022-11-29T10:49:43.966Z,97713.25
2022-11-29T10:52:10.600Z,97716.72
2022-11-29T10:54:37.232Z,97711.66
2022-11-29T10:57:03.874Z,97721.13
2022-11-29T10:59:30.488Z,97713.75
2022-11-29T11:01:57.074Z,97722.09
2022-11-29T11:04:23.731Z,97723.09
2022-11-29T11:06:50.334Z,97724.38
2022-11-29T11:09:16.961Z,97723.38
2022-11-29T11:11:43.576Z,97726.22
2022-11-29T11:14:10.237Z,97728.00
2022-11-29T11:16:37.785Z,97724.59
2022-11-29T11:19:04.606Z,97721.97
2022-11-29T11:21:31.299Z,97721.97
2022-11-29T11:23:57.925Z,97724.28
2022-11-29T11:26:24.530Z,97721.28
2022-11-29T11:28:51.137Z,97719.34
2022-11-29T11:31:17.812Z,97719.00
2022-11-29T11:33:44.533Z,97717.00
2022-11-29T11:36:11.142Z,97717.53
2022-11-29T11:38:37.736Z,97722.09
2022-11-29T11:41:04.403Z,97726.53
2022-11-29T11:43:30.996Z,97726.38
2022-11-29T11:45:57.674Z,97728.34
2022-11-29T11:48:24.383Z,97730.75
2022-11-29T11:50:51.020Z,97734.50
2022-11-29T11:53:17.640Z,97736.63
2022-11-29T11:55:44.285Z,97730.88
2022-11-29T11:58:11.083Z,97732.47
2022-11-29T12:01:02.437Z,97733.50
2022-11-29T12:03:24.403Z,97737.91
2022-11-29T12:05:51.086Z,97734.00
2022-11-29T12:08:17.823Z,97736.19
2022-11-29T12:10:44.547Z,97742.81
2022-11-29T12:13:11.173Z,97733.91
2022-11-29T12:15:37.956Z,97736.03
2022-11-29T12:18:04.678Z,97738.19
2022-11-29T12:20:31.324Z,97736.66
2022-11-29T12:22:57.996Z,97733.13
2022-11-29T12:25:24.621Z,97739.03
2022-11-29T12:27:51.268Z,97728.41
2022-11-29T12:30:17.937Z,97728.22
2022-11-29T12:32:44.533Z,97728.63
2022-11-29T12:35:14.779Z,97727.78
2022-11-29T12:37:44.058Z,97730.47
2022-11-29T12:40:10.762Z,97724.78
2022-11-29T12:42:37.514Z,97721.31
2022-11-29T12:45:04.211Z,97723.13
2022-11-29T12:47:38.208Z,97721.91
2022-11-29T12:50:05.038Z,97724.38
2022-11-29T12:52:31.726Z,97725.38
2022-11-29T12:54:58.347Z,97739.84
2022-11-29T12:57:25.013Z,97737.66
2022-11-29T12:59:51.659Z,97747.44
2022-11-29T13:02:18.361Z,97738.47
2022-11-29T13:04:45.378Z,97737.34
2022-11-29T13:07:12.358Z,97738.78
2022-11-29T13:09:38.973Z,97739.09
2022-11-29T13:12:05.955Z,97747.34
2022-11-29T13:14:47.942Z,97741.97
2022-11-29T13:17:14.554Z,97749.44
2022-11-29T13:19:41.221Z,97746.13
2022-11-29T13:22:07.836Z,97751.34
2022-11-29T13:24:38.376Z,97756.06
2022-11-29T13:27:09.310Z,97750.66
2022-11-29T13:29:35.915Z,97756.53
2022-11-29T13:32:02.540Z,97758.31
2022-11-29T13:34:29.203Z,97768.94
2022-11-29T13:36:55.855Z,97762.91
2022-11-29T13:39:22.500Z,97766.06
2022-11-29T13:41:49.206Z,97764.03
2022-11-29T13:44:15.830Z,97770.41
2022-11-29T13:46:42.509Z,97768.16
2022-11-29T13:49:09.207Z,97772.06
2022-11-29T13:51:35.850Z,97773.44
2022-11-29T13:54:02.503Z,97772.16
2022-11-29T13:56:29.127Z,97775.09
2022-11-29T13:58:55.806Z,97779.84
2022-11-29T14:01:22.515Z,97775.06
2022-11-29T14:03:49.164Z,97777.84
2022-11-29T14:06:15.798Z,97771.59
2022-11-29T14:09:10.734Z,97774.53
2022-11-29T14:11:28.966Z,97778.91
2022-11-29T14:13:55.607Z,97782.75
2022-11-29T14:16:22.227Z,97789.66
2022-11-29T14:18:48.950Z,97786.09
2022-11-29T14:21:15.570Z,97788.53
2022-11-29T14:23:42.234Z,97792.22
2022-11-29T14:26:08.854Z,97787.31
2022-11-29T14:28:35.504Z,97790.22
2022-11-29T14:31:02.273Z,97781.50
2022-11-29T14:33:29.056Z,97777.34
2022-11-29T14:35:55.722Z,97769.63
2022-11-29T14:38:26.332Z,97762.97
2022-11-29T14:40:57.523Z,97782.38
2022-11-29T14:43:24.177Z,97778.81
2022-11-29T14:45:50.813Z,97786.03
2022-11-29T14:48:17.483Z,97779.88
2022-11-29T14:50:44.132Z,97782.25
2022-11-29T14:53:10.815Z,97775.72
2022-11-29T14:55:37.414Z,97769.34
2022-11-29T14:58:04.095Z,97774.78
2022-11-29T15:00:30.805Z,97774.78
2022-11-29T15:02:57.469Z,97768.63
2022-11-29T15:05:24.114Z,97769.63
2022-11-29T15:07:50.805Z,97768.22
2022-11-29T15:10:17.549Z,97775.94
2022-11-29T15:12:44.215Z,97771.88
2022-11-29T15:15:10.861Z,97772.03
2022-11-29T15:17:37.563Z,97777.25
2022-11-29T15:20:04.208Z,97773.47
2022-11-29T15:22:30.846Z,97775.13
2022-11-29T15:24:57.468Z,97773.44
2022-11-29T15:27:24.111Z,97774.91
2022-11-29T15:29:50.756Z,97779.72
2022-11-29T15:32:17.378Z,97772.03
2022-11-29T15:34:44.274Z,97766.78
2022-11-29T15:37:11.156Z,97768.94
2022-11-29T15:39:37.736Z,97768.75
2022-11-29T15:42:04.384Z,97774.00
2022-11-29T15:44:31.029Z,97769.72
2022-11-29T15:46:57.708Z,97764.34
2022-11-29T15:49:24.389Z,97764.28
2022-11-29T15:51:50.985Z,97763.03
2022-11-29T15:54:17.571Z,97760.31
2022-11-29T15:56:44.251Z,97753.69
2022-11-29T15:59:10.841Z,97752.41
2022-11-29T16:01:37.579Z,97759.09
2022-11-29T16:04:04.294Z,97767.88
2022-11-29T16:06:30.942Z,97765.13
2022-11-29T16:08:57.610Z,97769.88
2022-11-29T16:11:24.219Z,97773.09
2022-11-29T16:13:50.845Z,97769.78
2022-11-29T16:16:17.469Z,97770.16
2022-11-29T16:18:44.275Z,97769.25
2022-11-29T16:21:10.860Z,97781.63
2022-11-29T16:23:37.529Z,97782.47
2022-11-29T16:26:04.166Z,97783.19
2022-11-29T16:28:30.854Z,97778.47
2022-11-29T16:30:57.489Z,97782.03
2022-11-29T16:33:24.137Z,97780.56
2022-11-29T16:35:50.761Z,97778.78
2022-11-29T16:38:17.388Z,97785.00
2022-11-29T16:40:43.994Z,97777.78
2022-11-29T16:43:10.633Z,97775.47
2022-11-29T16:45:37.369Z,97778.41
2022-11-29T16:48:04.049Z,97774.03
2022-11-29T16:50:30.687Z,97781.09
2022-11-29T16:52:57.324Z,97781.75
2022-11-29T16:55:24.009Z,97783.50
2022-11-29T16:57:50.611Z,97790.19
2022-11-29T17:00:17.220Z,97794.41
2022-11-29T17:02:43.843Z,97793.41
2022-11-29T17:05:10.472Z,97793.88
2022-11-29T17:07:37.147Z,97788.63
2022-11-29T17:10:03.817Z,97799.53
2022-11-29T17:12:30.415Z,97801.66
2022-11-29T17:14:57.066Z,97794.94
2022-11-29T17:17:23.686Z,97799.56
2022-11-29T17:19:50.360Z,97804.47
2022-11-29T17:22:16.977Z,97800.06
2022-11-29T17:24:47.697Z,97808.25
2022-11-29T17:27:15.098Z,97805.47
2022-11-29T17:29:41.745Z,97800.38
2022-11-29T17:32:08.410Z,97809.25
2022-11-29T17:34:35.384Z,97807.78
2022-11-29T17:37:02.025Z,97819.09
2022-11-29T17:39:28.677Z,97826.63
2022-11-29T17:41:55.300Z,97830.53
2022-11-29T17:44:21.903Z,97828.06
2022-11-29T17:46:48.580Z,97831.09
2022-11-29T17:49:15.223Z,97833.78
2022-11-29T17:51:57.213Z,97834.06
2022-11-29T17:54:23.841Z,97833.13
2022-11-29T17:56:50.518Z,97839.84
2022-11-29T17:59:17.182Z,97838.19
2022-11-29T18:01:43.945Z,97841.00
2022-11-29T18:04:10.694Z,97837.88
2022-11-29T18:06:37.308Z,97838.06
2022-11-29T18:09:03.926Z,97834.94
2022-11-29T18:11:30.584Z,97836.59
2022-11-29T18:13:57.197Z,97834.63
2022-11-29T18:16:23.862Z,97841.44
2022-11-29T18:18:50.628Z,97842.47
2022-11-29T18:21:17.312Z,97848.84
2022-11-29T18:23:43.919Z,97851.78
2022-11-29T18:26:10.511Z,97849.16
2022-11-29T18:28:37.189Z,97848.47
2022-11-29T18:31:03.885Z,97857.03
2022-11-29T18:33:30.592Z,97850.13
2022-11-29T18:35:57.188Z,97852.41
2022-11-29T18:38:23.851Z,97855.69
2022-11-29T18:40:50.479Z,97853.56
2022-11-29T18:43:17.108Z,97852.88
2022-11-29T18:45:43.801Z,97856.84
2022-11-29T18:48:10.649Z,97845.53
2022-11-29T18:50:37.304Z,97848.19
2022-11-29T18:53:03.990Z,97849.50
2022-11-29T18:55:30.619Z,97859.81
2022-11-29T18:57:57.280Z,97859.97
2022-11-29T19:00:23.925Z,97851.47
2022-11-29T19:02:50.642Z,97855.06
2022-11-29T19:05:17.284Z,97857.50
2022-11-29T19:07:43.947Z,97860.59
2022-11-29T19:10:10.626Z,97855.97
2022-11-29T19:12:37.266Z,97853.00
2022-11-29T19:15:03.891Z,97864.44
2022-11-29T19:17:30.563Z,97863.97
2022-11-29T19:19:57.194Z,97869.41
2022-11-29T19:22:23.853Z,97861.56
2022-11-29T19:24:50.522Z,97863.91
2022-11-29T19:27:17.161Z,97873.06
2022-11-29T19:29:43.795Z,97864.88
2022-11-29T19:32:10.435Z,97870.13
2022-11-29T19:34:37.069Z,97870.78
2022-11-29T19:37:03.683Z,97868.97
2022-11-29T19:39:30.377Z,97869.06
2022-11-29T19:41:57.075Z,97875.94
2022-11-29T19:44:28.049Z,97873.78
2022-11-29T19:46:56.641Z,97874.63
2022-11-29T19:49:23.251Z,97872.00
2022-11-29T19:51:49.890Z,97877.84
2022-11-29T19:54:16.538Z,97875.09
2022-11-29T19:56:43.189Z,97878.78
2022-11-29T19:59:09.838Z,97881.31
2022-11-29T20:01:40.838Z,97871.16
2022-11-29T20:04:08.309Z,97866.78
2022-11-29T20:06:34.940Z,97869.03
2022-11-29T20:09:01.559Z,97873.28
2022-11-29T20:11:28.194Z,97868.72
2022-11-29T20:13:58.381Z,97869.41
2022-11-29T20:16:25.034Z,97869.72
2022-11-29T20:18:51.667Z,97867.94
2022-11-29T20:21:18.339Z,97870.03
2022-11-29T20:23:44.990Z,97871.38
2022-11-29T20:26:11.674Z,97869.41
2022-11-29T20:28:38.335Z,97869.06
2022-11-29T20:31:05.611Z,97880.38
2022-11-29T20:33:32.230Z,97879.56
2022-11-29T20:35:58.848Z,97879.50
2022-11-29T20:38:25.461Z,97874.91
2022-11-29T20:40:52.724Z,97877.03
2022-11-29T20:43:19.462Z,97878.84
2022-11-29T20:45:46.105Z,97876.84
2022-11-29T20:48:12.761Z,97872.13
2022-11-29T20:50:39.461Z,97877.72
2022-11-29T20:53:06.144Z,97874.59
2022-11-29T20:55:32.811Z,97867.69
2022-11-29T20:57:59.470Z,97869.72
2022-11-29T21:00:26.085Z,97872.31
2022-11-29T21:02:52.717Z,97871.16
2022-11-29T21:05:19.344Z,97865.78
2022-11-29T21:07:46.046Z,97869.84
2022-11-29T21:10:12.762Z,97868.22
2022-11-29T21:12:39.441Z,97874.44
2022-11-29T21:15:06.068Z,97876.56
2022-11-29T21:17:33.927Z,97875.59
2022-11-29T21:20:00.733Z,97874.44
2022-11-29T21:22:27.371Z,97875.78
2022-11-29T21:24:54.006Z,97873.34
2022-11-29T21:27:20.593Z,97874.31
2022-11-29T21:29:47.228Z,97868.41
2022-11-29T21:32:19.045Z,97870.63
2022-11-29T21:34:46.093Z,97870.63
2022-11-29T21:37:12.903Z,97870.81
2022-11-29T21:39:39.559Z,97869.34
2022-11-29T21:42:06.208Z,97872.69
2022-11-29T21:44:32.863Z,97872.47
2022-11-29T21:46:59.480Z,97869.72
2022-11-29T21:49:26.095Z,97874.81
2022-11-29T21:51:52.780Z,97875.00
2022-11-29T21:54:19.455Z,97877.97
2022-11-29T21:56:46.093Z,97877.78
2022-11-29T21:59:12.692Z,97881.69
2022-11-29T22:01:39.373Z,97875.03
2022-11-29T22:04:06.161Z,97875.13
2022-11-29T22:06:32.785Z,97880.47
2022-11-29T22:08:59.372Z,97875.25
2022-11-29T22:11:25.956Z,97876.38
2022-11-29T22:13:52.568Z,97869.75
2022-11-29T22:16:19.221Z,97877.13
2022-11-29T22:18:46.038Z,97877.97
2022-11-29T22:21:12.653Z,97869.81
2022-11-29T22:23:39.291Z,97864.84
2022-11-29T22:26:05.941Z,97867.16
2022-11-29T22:28:32.571Z,97863.72
2022-11-29T22:30:59.303Z,97866.25
2022-11-29T22:33:25.919Z,97869.34
2022-11-29T22:35:52.559Z,97866.38
2022-11-29T22:38:19.242Z,97865.41
2022-11-29T22:40:45.875Z,97864.94
2022-11-29T22:43:12.515Z,97863.13
2022-11-29T22:45:39.208Z,97862.63
2022-11-29T22:48:05.805Z,97859.69
2022-11-29T22:50:32.463Z,97857.22
2022-11-29T22:52:59.068Z,97863.44
2022-11-29T22:55:25.733Z,97860.00
2022-11-29T22:57:52.430Z,97862.94
2022-11-29T23:00:19.026Z,97868.00
2022-11-29T23:02:45.637Z,97861.38
2022-11-29T23:05:12.244Z,97870.31
2022-11-29T23:07:38.885Z,97865.44
2022-11-29T23:10:05.524Z,97866.41
2022-11-29T23:12:32.112Z,97869.63
2022-11-29T23:14:58.969Z,97873.72
2022-11-29T23:17:25.748Z,97869.00
2022-11-29T23:19:52.485Z,97867.38
2022-11-29T23:22:19.234Z,97863.75
2022-11-29T23:24:46.207Z,97868.84
2022-11-29T23:27:12.978Z,97857.53
2022-11-29T23:29:39.625Z,97856.69
2022-11-29T23:32:06.267Z,97860.56
2022-11-29T23:34:33.040Z,97862.72
2022-11-29T23:37:02.828Z,97855.66
2022-11-29T23:39:29.453Z,97860.94
2022-11-29T23:41:56.083Z,97853.78
2022-11-29T23:44:22.784Z,97855.81
2022-11-29T23:46:49.412Z,97855.50
2022-11-29T23:49:16.073Z,97852.91
2022-11-29T23:51:42.731Z,97852.28
2022-11-29T23:54:09.412Z,97858.53
2022-11-29T23:56:36.039Z,97860.16
2022-11-29T23:59:02.729Z,97856.34
